createdAt,value
2022-08-11T00:00:20.272Z,1.97
2022-08-11T00:03:25.034Z,2.17
2022-08-11T00:06:48.957Z,2.00
2022-08-11T00:09:54.026Z,1.90
2022-08-11T00:12:59.406Z,3.50
2022-08-11T00:16:03.613Z,2.60
2022-08-11T00:19:09.095Z,2.50
2022-08-11T00:22:13.012Z,1.97
2022-08-11T00:25:18.583Z,2.10
2022-08-11T00:28:27.042Z,5.93
2022-08-11T00:31:32.477Z,3.50
2022-08-11T00:34:39.588Z,2.30
2022-08-11T00:37:49.544Z,2.30
2022-08-11T00:41:01.114Z,2.80
2022-08-11T00:44:29.757Z,2.90
2022-08-11T00:47:51.526Z,2.40
2022-08-11T00:51:11.115Z,2.43
2022-08-11T00:54:39.635Z,2.33
2022-08-11T00:58:21.848Z,2.20
2022-08-11T01:01:42.588Z,2.10
2022-08-11T01:05:17.002Z,2.00
2022-08-11T01:09:09.410Z,2.00
2022-08-11T01:12:41.322Z,2.13
2022-08-11T01:16:12.336Z,1.87
2022-08-11T01:20:47.862Z,2.40
2022-08-11T01:24:00.891Z,2.00
2022-08-11T01:27:33.718Z,2.13
2022-08-11T01:31:16.835Z,2.10
2022-08-11T01:35:18.948Z,2.40
2022-08-11T01:38:56.703Z,2.00
2022-08-11T01:42:40.427Z,1.90
2022-08-11T01:45:51.074Z,1.87
2022-08-11T01:49:29.117Z,2.07
2022-08-11T01:52:36.315Z,2.17
2022-08-11T01:55:48.503Z,2.30
2022-08-11T01:59:01.402Z,2.10
2022-08-11T02:02:45.984Z,2.10
2022-08-11T02:06:03.203Z,2.40
2022-08-11T02:09:14.472Z,2.10
2022-08-11T02:12:42.263Z,2.00
2022-08-11T02:16:04.471Z,2.03
2022-08-11T02:19:41.852Z,2.27
2022-08-11T02:23:12.355Z,2.57
2022-08-11T02:26:24.449Z,2.20
2022-08-11T02:29:34.168Z,2.37
2022-08-11T02:33:04.210Z,2.10
2022-08-11T02:36:11.644Z,2.27
2022-08-11T02:39:19.001Z,2.00
2022-08-11T02:42:35.469Z,2.47
2022-08-11T02:46:02.243Z,2.23
2022-08-11T02:49:33.295Z,2.10
2022-08-11T02:52:46.530Z,2.40
2022-08-11T02:55:58.733Z,2.20
2022-08-11T02:59:26.840Z,2.40
2022-08-11T03:02:58.429Z,2.77
2022-08-11T03:06:10.606Z,2.50
2022-08-11T03:09:25.769Z,2.47
2022-08-11T03:12:53.815Z,2.23
2022-08-11T03:16:37.505Z,2.40
2022-08-11T03:20:03.859Z,2.20
2022-08-11T03:23:19.488Z,2.27
2022-08-11T03:26:32.889Z,2.40
2022-08-11T03:29:41.723Z,2.10
2022-08-11T03:33:17.248Z,2.57
2022-08-11T03:37:01.752Z,2.37
2022-08-11T03:40:13.052Z,2.67
2022-08-11T03:43:28.450Z,2.37
2022-08-11T03:46:53.758Z,2.87
2022-08-11T03:50:10.539Z,2.33
2022-08-11T03:53:19.951Z,2.43
2022-08-11T03:56:59.043Z,2.50
2022-08-11T04:00:44.688Z,2.60
2022-08-11T04:04:15.050Z,2.83
2022-08-11T04:07:39.252Z,2.60
2022-08-11T04:11:14.174Z,2.53
2022-08-11T04:15:22.983Z,2.70
2022-08-11T04:18:51.024Z,2.60
2022-08-11T04:22:15.219Z,2.90
2022-08-11T04:25:30.981Z,3.03
2022-08-11T04:29:01.059Z,2.50
2022-08-11T04:32:27.538Z,2.63
2022-08-11T04:35:50.688Z,2.33
2022-08-11T04:39:11.845Z,3.13
2022-08-11T04:43:17.249Z,2.50
2022-08-11T04:47:02.871Z,2.70
2022-08-11T04:50:39.455Z,2.80
2022-08-11T04:54:13.828Z,2.30
2022-08-11T04:57:41.108Z,2.60
2022-08-11T05:01:14.846Z,2.70
2022-08-11T05:05:04.310Z,2.87
2022-08-11T05:08:43.440Z,3.10
2022-08-11T05:12:06.359Z,4.00
2022-08-11T05:15:32.280Z,2.90
2022-08-11T05:19:08.352Z,3.60
2022-08-11T05:22:32.424Z,3.50
2022-08-11T05:26:43.387Z,2.67
2022-08-11T05:29:54.846Z,2.80
2022-08-11T05:33:20.522Z,2.90
2022-08-11T05:36:42.137Z,3.50
2022-08-11T05:40:05.475Z,3.37
2022-08-11T05:43:32.209Z,3.37
2022-08-11T05:46:58.207Z,3.23
2022-08-11T05:50:31.292Z,3.07
2022-08-11T05:53:53.956Z,3.27
2022-08-11T05:56:59.799Z,3.17
2022-08-11T06:00:10.216Z,3.17
2022-08-11T06:03:23.599Z,3.07
2022-08-11T06:06:29.134Z,4.10
2022-08-11T06:09:35.682Z,3.07
2022-08-11T06:12:40.846Z,3.10
2022-08-11T06:15:48.363Z,2.90
2022-08-11T06:18:51.738Z,3.10
2022-08-11T06:21:57.003Z,3.20
2022-08-11T06:25:01.974Z,2.50
2022-08-11T06:28:07.437Z,2.90
2022-08-11T06:31:15.346Z,2.80
2022-08-11T06:34:34.166Z,3.00
2022-08-11T06:37:45.619Z,2.67
2022-08-11T06:41:19.673Z,2.43
2022-08-11T06:44:29.699Z,2.70
2022-08-11T06:47:33.293Z,2.30
2022-08-11T06:50:54.231Z,2.70
2022-08-11T06:54:04.920Z,2.43
2022-08-11T06:57:31.322Z,2.30
2022-08-11T07:00:36.126Z,2.30
2022-08-11T07:03:44.065Z,2.47
2022-08-11T07:07:20.238Z,2.00
2022-08-11T07:11:04.251Z,2.20
2022-08-11T07:14:25.637Z,2.20
2022-08-11T07:17:32.749Z,1.83
2022-08-11T07:20:57.439Z,2.03
2022-08-11T07:24:58.613Z,2.10
2022-08-11T07:28:16.298Z,2.40
2022-08-11T07:31:26.326Z,2.20
2022-08-11T07:34:34.832Z,1.60
2022-08-11T07:37:38.447Z,2.03
2022-08-11T07:40:43.622Z,2.00
2022-08-11T07:43:51.265Z,2.13
2022-08-11T07:47:12.728Z,1.87
2022-08-11T07:50:34.010Z,2.00
2022-08-11T07:53:57.742Z,1.70
2022-08-11T07:57:09.245Z,1.53
2022-08-11T08:00:34.603Z,2.20
2022-08-11T08:03:57.652Z,1.90
2022-08-11T08:07:21.602Z,2.43
2022-08-11T08:10:42.531Z,2.20
2022-08-11T08:14:04.478Z,2.23
2022-08-11T08:17:28.073Z,2.07
2022-08-11T08:20:35.337Z,2.10
2022-08-11T08:23:40.099Z,2.10
2022-08-11T08:27:00.049Z,2.10
2022-08-11T08:30:21.565Z,1.90
2022-08-11T08:33:28.327Z,1.93
2022-08-11T08:36:31.422Z,1.80
2022-08-11T08:39:37.688Z,2.60
2022-08-11T08:42:47.462Z,2.10
2022-08-11T08:45:52.214Z,1.70
2022-08-11T08:48:59.815Z,1.90
2022-08-11T08:52:21.756Z,2.27
2022-08-11T08:55:31.483Z,2.13
2022-08-11T08:58:37.331Z,1.77
2022-08-11T09:01:46.923Z,1.87
2022-08-11T09:04:51.974Z,1.83
2022-08-11T09:07:57.706Z,2.00
2022-08-11T09:11:20.299Z,2.33
2022-08-11T09:14:45.622Z,1.80
2022-08-11T09:17:51.249Z,1.90
2022-08-11T09:20:56.628Z,1.53
2022-08-11T09:24:25.842Z,1.40
2022-08-11T09:27:29.680Z,1.80
2022-08-11T09:30:33.417Z,1.40
2022-08-11T09:33:37.298Z,1.67
2022-08-11T09:37:02.595Z,1.50
2022-08-11T09:40:27.390Z,1.50
2022-08-11T09:43:48.731Z,1.67
2022-08-11T09:46:53.889Z,1.57
2022-08-11T09:50:01.490Z,1.50
2022-08-11T09:53:36.020Z,1.50
2022-08-11T09:56:48.088Z,1.50
2022-08-11T09:59:53.363Z,1.80
2022-08-11T10:03:18.922Z,1.50
2022-08-11T10:06:39.523Z,1.30
2022-08-11T10:09:50.127Z,1.60
2022-08-11T10:12:59.754Z,1.50
2022-08-11T10:16:15.748Z,1.63
2022-08-11T10:19:22.135Z,1.50
2022-08-11T10:22:58.174Z,1.80
2022-08-11T10:26:32.989Z,1.60
2022-08-11T10:29:56.885Z,1.57
2022-08-11T10:33:36.886Z,1.57
2022-08-11T10:36:44.921Z,1.50
2022-08-11T10:39:48.530Z,1.30
2022-08-11T10:43:07.515Z,1.50
2022-08-11T10:46:29.164Z,1.53
2022-08-11T10:49:34.356Z,1.57
2022-08-11T10:52:56.254Z,1.30
2022-08-11T10:56:17.486Z,1.40
2022-08-11T10:59:23.733Z,1.47
2022-08-11T11:02:28.155Z,1.50
2022-08-11T11:05:32.854Z,1.37
2022-08-11T11:08:57.710Z,1.40
2022-08-11T11:12:26.014Z,1.47
2022-08-11T11:15:53.560Z,1.80
2022-08-11T11:19:01.463Z,1.20
2022-08-11T11:22:38.300Z,1.53
2022-08-11T11:26:27.076Z,1.20
2022-08-11T11:29:43.203Z,1.90
2022-08-11T11:32:56.160Z,1.40
2022-08-11T11:36:12.972Z,1.00
2022-08-11T11:39:19.920Z,1.17
2022-08-11T11:42:23.781Z,0.90
2022-08-11T11:45:27.410Z,1.13
2022-08-11T11:48:32.516Z,1.50
2022-08-11T11:51:35.732Z,1.13
2022-08-11T11:54:40.410Z,1.00
2022-08-11T11:58:02.518Z,1.30
2022-08-11T12:01:20.095Z,1.40
2022-08-11T12:04:24.954Z,1.40
2022-08-11T12:07:45.939Z,1.20
2022-08-11T12:11:21.023Z,1.00
2022-08-11T12:14:27.571Z,0.90
2022-08-11T12:17:30.980Z,1.00
2022-08-11T12:20:35.907Z,1.20
2022-08-11T12:24:02.280Z,1.25
2022-08-11T12:27:24.214Z,1.08
2022-08-11T12:30:29.413Z,1.30
2022-08-11T12:33:35.095Z,1.13
2022-08-11T12:36:42.483Z,1.20
2022-08-11T12:40:16.374Z,1.00
2022-08-11T12:43:57.171Z,1.02
2022-08-11T12:47:02.376Z,1.30
2022-08-11T12:50:24.424Z,1.20
2022-08-11T12:53:30.702Z,1.50
2022-08-11T12:56:57.249Z,1.10
2022-08-11T13:00:19.857Z,1.17
2022-08-11T13:03:42.719Z,1.00
2022-08-11T13:06:46.188Z,1.10
2022-08-11T13:09:51.633Z,1.10
2022-08-11T13:12:53.770Z,1.20
2022-08-11T13:15:57.520Z,1.20
2022-08-11T13:19:02.281Z,1.20
2022-08-11T13:22:07.265Z,1.20
2022-08-11T13:25:14.831Z,1.40
2022-08-11T13:28:21.265Z,1.20
2022-08-11T13:31:24.532Z,1.25
2022-08-11T13:34:30.957Z,1.30
2022-08-11T13:38:17.536Z,1.35
2022-08-11T13:41:00.712Z,1.08
2022-08-11T13:44:05.367Z,1.27
2022-08-11T13:47:09.683Z,1.30
2022-08-11T13:50:13.692Z,1.20
2022-08-11T13:53:20.369Z,1.15
2022-08-11T13:56:26.180Z,1.20
2022-08-11T13:59:31.198Z,1.02
2022-08-11T14:02:35.146Z,1.20
2022-08-11T14:05:40.739Z,1.30
2022-08-11T14:08:53.571Z,1.10
2022-08-11T14:12:24.396Z,1.48
2022-08-11T14:15:32.547Z,1.38
2022-08-11T14:18:37.213Z,1.20
2022-08-11T14:22:07.036Z,1.42
2022-08-11T14:25:12.343Z,1.30
2022-08-11T14:28:31.821Z,1.15
2022-08-11T14:31:44.318Z,1.08
2022-08-11T14:34:47.740Z,1.00
2022-08-11T14:37:51.122Z,1.40
2022-08-11T14:41:11.763Z,1.38
2022-08-11T14:44:34.685Z,1.60
2022-08-11T14:47:40.216Z,1.30
2022-08-11T14:50:43.719Z,1.38
2022-08-11T14:53:58.554Z,1.50
2022-08-11T14:57:03.174Z,1.13
2022-08-11T15:00:10.662Z,1.20
2022-08-11T15:03:17.470Z,1.15
2022-08-11T15:06:20.815Z,1.10
2022-08-11T15:09:24.058Z,1.30
2022-08-11T15:12:33.286Z,1.50
2022-08-11T15:15:55.927Z,1.30
2022-08-11T15:18:59.785Z,1.45
2022-08-11T15:22:24.825Z,1.33
2022-08-11T15:25:34.586Z,1.45
2022-08-11T15:28:58.866Z,1.50
2022-08-11T15:32:20.666Z,1.77
2022-08-11T15:35:42.199Z,1.35
2022-08-11T15:38:54.911Z,1.30
2022-08-11T15:42:20.499Z,1.60
2022-08-11T15:45:43.342Z,1.00
2022-08-11T15:48:51.323Z,1.40
2022-08-11T15:52:06.032Z,1.33
2022-08-11T15:55:10.065Z,1.80
2022-08-11T15:58:31.827Z,1.47
2022-08-11T16:01:54.504Z,1.50
2022-08-11T16:05:01.963Z,1.33
2022-08-11T16:08:05.832Z,1.48
2022-08-11T16:11:10.034Z,1.40
2022-08-11T16:14:33.034Z,1.30
2022-08-11T16:17:41.295Z,1.47
2022-08-11T16:20:46.800Z,1.43
2022-08-11T16:23:50.315Z,1.57
2022-08-11T16:27:10.952Z,1.37
2022-08-11T16:30:15.777Z,1.50
2022-08-11T16:33:50.800Z,1.50
2022-08-11T16:37:05.148Z,1.37
2022-08-11T16:40:10.251Z,1.13
2022-08-11T16:43:35.553Z,1.30
2022-08-11T16:46:56.119Z,1.37
2022-08-11T16:50:00.486Z,1.60
2022-08-11T16:53:05.351Z,1.57
2022-08-11T16:56:10.241Z,1.50
2022-08-11T16:59:18.544Z,1.17
2022-08-11T17:02:39.004Z,1.63
2022-08-11T17:06:19.719Z,1.30
2022-08-11T17:09:42.862Z,1.30
2022-08-11T17:13:08.484Z,1.60
2022-08-11T17:16:14.539Z,1.80
2022-08-11T17:20:42.470Z,1.50
2022-08-11T17:23:04.375Z,1.37
2022-08-11T17:26:09.089Z,1.27
2022-08-11T17:29:13.006Z,1.30
2022-08-11T17:32:57.276Z,1.70
2022-08-11T17:36:01.701Z,1.60
2022-08-11T17:39:04.921Z,2.30
2022-08-11T17:42:28.399Z,2.07
2022-08-11T17:45:55.550Z,1.50
2022-08-11T17:48:59.016Z,1.30
2022-08-11T17:52:19.662Z,1.80
2022-08-11T17:55:52.343Z,1.30
2022-08-11T17:59:17.026Z,1.40
2022-08-11T18:02:40.193Z,1.67
2022-08-11T18:05:45.576Z,1.30
2022-08-11T18:09:08.953Z,1.60
2022-08-11T18:12:30.899Z,1.70
2022-08-11T18:15:55.795Z,1.53
2022-08-11T18:19:17.433Z,1.47
2022-08-11T18:22:41.529Z,1.80
2022-08-11T18:26:06.487Z,1.57
2022-08-11T18:29:30.423Z,1.60
2022-08-11T18:33:45.171Z,1.47
2022-08-11T18:36:52.956Z,1.63
2022-08-11T18:40:18.898Z,1.40
2022-08-11T18:43:42.699Z,2.00
2022-08-11T18:47:07.004Z,1.83
2022-08-11T18:50:38.642Z,1.80
2022-08-11T18:54:03.949Z,1.83
2022-08-11T18:57:26.424Z,1.93
2022-08-11T19:00:48.081Z,1.67
2022-08-11T19:04:11.863Z,1.53
2022-08-11T19:07:40.106Z,1.70
2022-08-11T19:11:01.988Z,1.73
2022-08-11T19:14:23.970Z,1.77
2022-08-11T19:17:49.420Z,1.90
2022-08-11T19:21:12.093Z,1.13
2022-08-11T19:24:35.604Z,1.40
2022-08-11T19:27:58.576Z,1.37
2022-08-11T19:31:19.365Z,1.80
2022-08-11T19:34:41.712Z,1.47
2022-08-11T19:38:03.502Z,1.40
2022-08-11T19:41:57.034Z,1.27
2022-08-11T19:45:07.220Z,1.40
2022-08-11T19:48:32.096Z,1.50
2022-08-11T19:51:55.115Z,1.70
2022-08-11T19:55:16.908Z,1.50
2022-08-11T19:58:39.194Z,1.70
2022-08-11T20:02:01.652Z,1.30
2022-08-11T20:05:35.459Z,1.40
2022-08-11T20:09:01.020Z,1.37
2022-08-11T20:12:24.181Z,1.47
2022-08-11T20:15:47.326Z,1.33
2022-08-11T20:19:09.979Z,1.90
2022-08-11T20:22:32.611Z,1.57
2022-08-11T20:26:03.399Z,1.37
2022-08-11T20:29:30.324Z,1.67
2022-08-11T20:32:52.492Z,1.60
2022-08-11T20:36:13.341Z,1.80
2022-08-11T20:39:35.501Z,2.97
2022-08-11T20:42:58.368Z,2.40
2022-08-11T20:46:20.385Z,2.10
2022-08-11T20:49:50.455Z,2.00
2022-08-11T20:53:15.361Z,1.57
2022-08-11T20:56:37.913Z,1.90
2022-08-11T20:59:59.437Z,1.93
2022-08-11T21:03:36.256Z,2.10
2022-08-11T21:07:03.764Z,1.73
2022-08-11T21:10:27.343Z,1.40
2022-08-11T21:13:55.655Z,1.50
2022-08-11T21:17:27.444Z,1.77
2022-08-11T21:20:50.148Z,1.70
2022-08-11T21:24:13.097Z,1.40
2022-08-11T21:27:38.236Z,1.60
2022-08-11T21:30:59.306Z,1.30
2022-08-11T21:34:21.235Z,1.23
2022-08-11T21:37:43.375Z,1.60
2022-08-11T21:41:08.168Z,1.30
2022-08-11T21:44:29.146Z,1.60
2022-08-11T21:48:01.226Z,1.70
2022-08-11T21:51:22.286Z,1.60
2022-08-11T21:54:43.681Z,1.77
2022-08-11T21:58:06.936Z,1.70
2022-08-11T22:01:28.090Z,1.50
2022-08-11T22:04:55.461Z,1.60
2022-08-11T22:08:16.471Z,1.50
2022-08-11T22:11:37.219Z,1.67
2022-08-11T22:14:59.991Z,1.40
2022-08-11T22:18:21.078Z,1.53
2022-08-11T22:22:01.426Z,1.80
2022-08-11T22:25:24.540Z,1.80
2022-08-11T22:28:58.678Z,1.70
2022-08-11T22:32:20.625Z,1.80
2022-08-11T22:35:42.057Z,1.80
2022-08-11T22:39:04.479Z,1.30
2022-08-11T22:42:33.676Z,1.67
2022-08-11T22:46:04.373Z,1.70
2022-08-11T22:49:27.529Z,1.60
2022-08-11T22:52:49.491Z,1.93
2022-08-11T22:56:10.484Z,1.50
2022-08-11T22:59:33.063Z,1.70
2022-08-11T23:02:53.702Z,1.77
2022-08-11T23:06:16.474Z,1.57
2022-08-11T23:09:38.545Z,1.80
2022-08-11T23:13:01.070Z,1.70
2022-08-11T23:16:22.632Z,1.70
2022-08-11T23:20:13.283Z,1.80
2022-08-11T23:23:27.094Z,1.90
2022-08-11T23:26:49.025Z,1.80
2022-08-11T23:30:11.379Z,1.67
2022-08-11T23:33:36.032Z,1.87
2022-08-11T23:36:56.471Z,1.80
2022-08-11T23:40:20.122Z,1.73
2022-08-11T23:43:43.960Z,1.60
2022-08-11T23:47:07.126Z,1.50
2022-08-11T23:50:28.016Z,1.93
2022-08-11T23:53:48.711Z,1.70
2022-08-11T23:57:10.526Z,1.73
